sensor_id;sensor_type;location;lat;lon;timestamp;pressure;altitude;pressure_sealevel;temperature;humidity
64095;BME280;50353;51.420;5.682;2023-01-04T00:00:34;101751.03;;;8.92;90.28
64095;BME280;50353;51.420;5.682;2023-01-04T00:02:59;101739.25;;;9.01;89.14
64095;BME280;50353;51.420;5.682;2023-01-04T00:05:24;101739.03;;;9.29;89.51
64095;BME280;50353;51.420;5.682;2023-01-04T00:07:49;101735.63;;;9.03;90.47
64095;BME280;50353;51.420;5.682;2023-01-04T00:10:15;101727.84;;;9.00;91.20
64095;BME280;50353;51.420;5.682;2023-01-04T00:12:40;101731.97;;;9.07;91.54
64095;BME280;50353;51.420;5.682;2023-01-04T00:15:06;101720.03;;;8.97;91.33
64095;BME280;50353;51.420;5.682;2023-01-04T00:17:32;101716.75;;;8.92;92.15
64095;BME280;50353;51.420;5.682;2023-01-04T00:19:57;101712.13;;;8.97;92.67
64095;BME280;50353;51.420;5.682;2023-01-04T00:22:23;101703.25;;;9.00;93.08
64095;BME280;50353;51.420;5.682;2023-01-04T00:24:48;101700.31;;;8.85;93.11
64095;BME280;50353;51.420;5.682;2023-01-04T00:27:13;101699.34;;;8.88;94.39
64095;BME280;50353;51.420;5.682;2023-01-04T00:29:38;101701.34;;;9.03;94.18
64095;BME280;50353;51.420;5.682;2023-01-04T00:32:04;101689.41;;;8.94;93.68
64095;BME280;50353;51.420;5.682;2023-01-04T00:34:29;101693.44;;;9.03;93.90
64095;BME280;50353;51.420;5.682;2023-01-04T00:36:54;101690.53;;;8.87;94.89
64095;BME280;50353;51.420;5.682;2023-01-04T00:39:19;101680.47;;;8.97;95.17
64095;BME280;50353;51.420;5.682;2023-01-04T00:41:49;101677.59;;;8.59;97.44
64095;BME280;50353;51.420;5.682;2023-01-04T00:44:15;101672.53;;;8.99;96.09
64095;BME280;50353;51.420;5.682;2023-01-04T00:46:41;101661.38;;;8.92;96.90
64095;BME280;50353;51.420;5.682;2023-01-04T00:49:08;101663.19;;;8.90;96.73
64095;BME280;50353;51.420;5.682;2023-01-04T00:51:35;101650.75;;;8.93;96.59
64095;BME280;50353;51.420;5.682;2023-01-04T00:54:01;101636.16;;;8.85;97.70
64095;BME280;50353;51.420;5.682;2023-01-04T00:56:28;101649.25;;;8.88;98.09
64095;BME280;50353;51.420;5.682;2023-01-04T00:58:59;101658.59;;;8.95;98.61
64095;BME280;50353;51.420;5.682;2023-01-04T01:01:26;101646.22;;;8.75;100.00
64095;BME280;50353;51.420;5.682;2023-01-04T01:03:57;101641.44;;;8.85;100.00
64095;BME280;50353;51.420;5.682;2023-01-04T01:06:23;101634.81;;;8.96;99.66
64095;BME280;50353;51.420;5.682;2023-01-04T01:08:52;101635.66;;;8.75;100.00
64095;BME280;50353;51.420;5.682;2023-01-04T01:11:19;101635.56;;;9.00;98.73
64095;BME280;50353;51.420;5.682;2023-01-04T01:13:45;101636.63;;;9.17;98.34
64095;BME280;50353;51.420;5.682;2023-01-04T01:16:13;101630.34;;;8.99;98.94
64095;BME280;50353;51.420;5.682;2023-01-04T01:18:40;101626.34;;;8.88;100.00
64095;BME280;50353;51.420;5.682;2023-01-04T01:21:08;101618.13;;;8.96;99.83
64095;BME280;50353;51.420;5.682;2023-01-04T01:23:34;101613.09;;;8.90;100.00
64095;BME280;50353;51.420;5.682;2023-01-04T01:26:05;101626.31;;;9.10;99.40
64095;BME280;50353;51.420;5.682;2023-01-04T01:28:32;101628.78;;;9.15;98.61
64095;BME280;50353;51.420;5.682;2023-01-04T01:30:58;101611.03;;;9.19;97.85
64095;BME280;50353;51.420;5.682;2023-01-04T01:33:25;101608.25;;;9.01;99.00
64095;BME280;50353;51.420;5.682;2023-01-04T01:35:51;101622.00;;;9.09;100.00
64095;BME280;50353;51.420;5.682;2023-01-04T01:38:16;101639.97;;;9.20;99.44
64095;BME280;50353;51.420;5.682;2023-01-04T01:40:42;101612.03;;;9.16;99.48
64095;BME280;50353;51.420;5.682;2023-01-04T01:43:16;101617.19;;;8.97;100.00
64095;BME280;50353;51.420;5.682;2023-01-04T01:45:42;101604.59;;;9.05;100.00
64095;BME280;50353;51.420;5.682;2023-01-04T01:48:15;101604.06;;;8.95;100.00
64095;BME280;50353;51.420;5.682;2023-01-04T01:51:02;101617.34;;;8.94;100.00
64095;BME280;50353;51.420;5.682;2023-01-04T01:53:31;101603.19;;;9.17;100.00
64095;BME280;50353;51.420;5.682;2023-01-04T01:55:59;101599.03;;;9.11;100.00
64095;BME280;50353;51.420;5.682;2023-01-04T01:58:33;101594.69;;;9.10;100.00
64095;BME280;50353;51.420;5.682;2023-01-04T02:01:00;101589.06;;;8.98;100.00
64095;BME280;50353;51.420;5.682;2023-01-04T02:03:31;101604.09;;;9.16;100.00
64095;BME280;50353;51.420;5.682;2023-01-04T02:05:58;101598.91;;;9.14;100.00
64095;BME280;50353;51.420;5.682;2023-01-04T02:08:26;101590.34;;;9.09;100.00
64095;BME280;50353;51.420;5.682;2023-01-04T02:10:51;101576.88;;;9.16;100.00
64095;BME280;50353;51.420;5.682;2023-01-04T02:13:20;101580.50;;;9.13;100.00
64095;BME280;50353;51.420;5.682;2023-01-04T02:15:58;101588.69;;;9.07;100.00
64095;BME280;50353;51.420;5.682;2023-01-04T02:18:32;101600.56;;;9.17;100.00
64095;BME280;50353;51.420;5.682;2023-01-04T02:21:21;101594.94;;;9.04;100.00
64095;BME280;50353;51.420;5.682;2023-01-04T02:26:51;101576.19;;;9.33;100.00
64095;BME280;50353;51.420;5.682;2023-01-04T02:32:11;101572.94;;;9.46;100.00
64095;BME280;50353;51.420;5.682;2023-01-04T02:34:58;101554.19;;;9.32;100.00
64095;BME280;50353;51.420;5.682;2023-01-04T02:37:37;101559.41;;;9.34;100.00
64095;BME280;50353;51.420;5.682;2023-01-04T02:40:37;101554.59;;;9.23;100.00
64095;BME280;50353;51.420;5.682;2023-01-04T02:43:14;101554.47;;;9.26;100.00
64095;BME280;50353;51.420;5.682;2023-01-04T02:46:05;101568.44;;;9.48;100.00
64095;BME280;50353;51.420;5.682;2023-01-04T02:48:36;101553.88;;;9.40;100.00
64095;BME280;50353;51.420;5.682;2023-01-04T02:51:39;101558.88;;;9.46;100.00
64095;BME280;50353;51.420;5.682;2023-01-04T02:54:10;101552.25;;;9.56;100.00
64095;BME280;50353;51.420;5.682;2023-01-04T02:57:19;101547.25;;;9.50;99.38
64095;BME280;50353;51.420;5.682;2023-01-04T03:02:55;101529.44;;;9.55;99.60
64095;BME280;50353;51.420;5.682;2023-01-04T03:09:28;101534.13;;;9.48;100.00
64095;BME280;50353;51.420;5.682;2023-01-04T03:11:42;101520.84;;;9.50;100.00
64095;BME280;50353;51.420;5.682;2023-01-04T03:14:31;101507.31;;;9.58;100.00
64095;BME280;50353;51.420;5.682;2023-01-04T03:17:00;101518.81;;;9.57;100.00
64095;BME280;50353;51.420;5.682;2023-01-04T03:19:26;101496.75;;;9.58;100.00
64095;BME280;50353;51.420;5.682;2023-01-04T03:22:13;101505.78;;;9.73;100.00
64095;BME280;50353;51.420;5.682;2023-01-04T03:24:59;101494.53;;;9.48;100.00
64095;BME280;50353;51.420;5.682;2023-01-04T03:27:45;101487.28;;;9.54;100.00
64095;BME280;50353;51.420;5.682;2023-01-04T03:30:32;101492.34;;;9.58;100.00
64095;BME280;50353;51.420;5.682;2023-01-04T03:33:17;101475.97;;;9.71;100.00
64095;BME280;50353;51.420;5.682;2023-01-04T03:38:54;101471.78;;;9.46;100.00
64095;BME280;50353;51.420;5.682;2023-01-04T03:45:24;101484.38;;;9.60;100.00
64095;BME280;50353;51.420;5.682;2023-01-04T03:51:20;101470.88;;;9.66;100.00
64095;BME280;50353;51.420;5.682;2023-01-04T03:53:54;101472.66;;;9.66;100.00
64095;BME280;50353;51.420;5.682;2023-01-04T03:56:22;101471.09;;;9.61;100.00
64095;BME280;50353;51.420;5.682;2023-01-04T03:58:49;101463.69;;;9.70;100.00
64095;BME280;50353;51.420;5.682;2023-01-04T04:01:16;101459.16;;;9.72;100.00
64095;BME280;50353;51.420;5.682;2023-01-04T04:03:42;101453.03;;;9.71;100.00
64095;BME280;50353;51.420;5.682;2023-01-04T04:06:26;101449.91;;;9.63;100.00
64095;BME280;50353;51.420;5.682;2023-01-04T04:09:10;101458.41;;;9.70;100.00
64095;BME280;50353;51.420;5.682;2023-01-04T04:11:35;101453.25;;;9.67;100.00
64095;BME280;50353;51.420;5.682;2023-01-04T04:14:00;101441.63;;;9.71;100.00
64095;BME280;50353;51.420;5.682;2023-01-04T04:16:26;101460.47;;;9.82;100.00
64095;BME280;50353;51.420;5.682;2023-01-04T04:18:52;101452.19;;;9.71;100.00
64095;BME280;50353;51.420;5.682;2023-01-04T04:21:17;101437.63;;;9.62;100.00
64095;BME280;50353;51.420;5.682;2023-01-04T04:23:42;101441.97;;;9.82;100.00
64095;BME280;50353;51.420;5.682;2023-01-04T04:26:08;101446.75;;;9.74;100.00
64095;BME280;50353;51.420;5.682;2023-01-04T04:28:34;101431.78;;;9.74;100.00
64095;BME280;50353;51.420;5.682;2023-01-04T04:30:59;101437.13;;;9.73;100.00
64095;BME280;50353;51.420;5.682;2023-01-04T04:33:25;101423.16;;;9.71;100.00
64095;BME280;50353;51.420;5.682;2023-01-04T04:35:51;101420.63;;;9.87;100.00
64095;BME280;50353;51.420;5.682;2023-01-04T04:38:17;101409.28;;;9.85;100.00
64095;BME280;50353;51.420;5.682;2023-01-04T04:40:43;101412.84;;;9.84;100.00
64095;BME280;50353;51.420;5.682;2023-01-04T04:43:27;101406.00;;;9.79;100.00
64095;BME280;50353;51.420;5.682;2023-01-04T04:45:52;101406.56;;;9.86;100.00
64095;BME280;50353;51.420;5.682;2023-01-04T04:48:17;101399.09;;;9.77;100.00
64095;BME280;50353;51.420;5.682;2023-01-04T04:50:42;101394.38;;;9.84;100.00
64095;BME280;50353;51.420;5.682;2023-01-04T04:53:08;101404.94;;;9.84;100.00
64095;BME280;50353;51.420;5.682;2023-01-04T04:55:33;101380.69;;;9.75;100.00
64095;BME280;50353;51.420;5.682;2023-01-04T04:57:58;101392.22;;;9.92;100.00
64095;BME280;50353;51.420;5.682;2023-01-04T05:00:24;101384.50;;;10.06;100.00
64095;BME280;50353;51.420;5.682;2023-01-04T05:02:49;101381.38;;;9.98;100.00
64095;BME280;50353;51.420;5.682;2023-01-04T05:05:14;101396.13;;;10.02;100.00
64095;BME280;50353;51.420;5.682;2023-01-04T05:07:40;101389.28;;;9.98;100.00
64095;BME280;50353;51.420;5.682;2023-01-04T05:10:05;101394.72;;;10.12;100.00
64095;BME280;50353;51.420;5.682;2023-01-04T05:12:30;101386.16;;;10.07;100.00
64095;BME280;50353;51.420;5.682;2023-01-04T05:15:15;101375.41;;;10.12;100.00
64095;BME280;50353;51.420;5.682;2023-01-04T05:17:40;101376.41;;;10.09;100.00
64095;BME280;50353;51.420;5.682;2023-01-04T05:20:06;101373.06;;;10.23;100.00
64095;BME280;50353;51.420;5.682;2023-01-04T05:22:31;101376.78;;;10.19;100.00
64095;BME280;50353;51.420;5.682;2023-01-04T05:24:57;101374.88;;;10.23;100.00
64095;BME280;50353;51.420;5.682;2023-01-04T05:27:22;101368.16;;;10.15;100.00
64095;BME280;50353;51.420;5.682;2023-01-04T05:29:47;101369.03;;;10.16;100.00
64095;BME280;50353;51.420;5.682;2023-01-04T05:32:31;101359.97;;;10.39;100.00
64095;BME280;50353;51.420;5.682;2023-01-04T05:34:57;101366.34;;;10.35;100.00
64095;BME280;50353;51.420;5.682;2023-01-04T05:37:22;101369.00;;;10.35;100.00
64095;BME280;50353;51.420;5.682;2023-01-04T05:39:47;101356.97;;;10.28;100.00
64095;BME280;50353;51.420;5.682;2023-01-04T05:42:12;101351.88;;;10.42;100.00
64095;BME280;50353;51.420;5.682;2023-01-04T05:44:52;101349.19;;;10.25;100.00
64095;BME280;50353;51.420;5.682;2023-01-04T05:47:18;101351.84;;;10.25;100.00
64095;BME280;50353;51.420;5.682;2023-01-04T05:49:43;101339.09;;;10.15;100.00
64095;BME280;50353;51.420;5.682;2023-01-04T05:52:09;101339.25;;;10.30;100.00
64095;BME280;50353;51.420;5.682;2023-01-04T05:54:34;101346.97;;;10.35;100.00
64095;BME280;50353;51.420;5.682;2023-01-04T05:56:59;101330.41;;;10.31;100.00
64095;BME280;50353;51.420;5.682;2023-01-04T05:59:25;101330.72;;;10.42;100.00
64095;BME280;50353;51.420;5.682;2023-01-04T06:01:50;101321.63;;;10.48;100.00
64095;BME280;50353;51.420;5.682;2023-01-04T06:04:15;101320.84;;;10.28;100.00
64095;BME280;50353;51.420;5.682;2023-01-04T06:06:40;101321.97;;;10.42;100.00
64095;BME280;50353;51.420;5.682;2023-01-04T06:09:06;101321.63;;;10.48;100.00
64095;BME280;50353;51.420;5.682;2023-01-04T06:11:31;101325.50;;;10.58;100.00
64095;BME280;50353;51.420;5.682;2023-01-04T06:13:56;101330.88;;;10.57;100.00
64095;BME280;50353;51.420;5.682;2023-01-04T06:16:22;101337.81;;;10.59;100.00
64095;BME280;50353;51.420;5.682;2023-01-04T06:18:47;101339.94;;;10.69;100.00
64095;BME280;50353;51.420;5.682;2023-01-04T06:21:13;101342.03;;;10.62;100.00
64095;BME280;50353;51.420;5.682;2023-01-04T06:23:38;101327.78;;;10.48;100.00
64095;BME280;50353;51.420;5.682;2023-01-04T06:26:03;101347.34;;;10.62;100.00
64095;BME280;50353;51.420;5.682;2023-01-04T06:28:29;101330.81;;;10.58;100.00
64095;BME280;50353;51.420;5.682;2023-01-04T06:30:54;101330.91;;;10.39;100.00
64095;BME280;50353;51.420;5.682;2023-01-04T06:33:19;101334.53;;;10.54;100.00
64095;BME280;50353;51.420;5.682;2023-01-04T06:35:53;101320.13;;;10.60;100.00
64095;BME280;50353;51.420;5.682;2023-01-04T06:38:18;101341.38;;;10.58;100.00
64095;BME280;50353;51.420;5.682;2023-01-04T06:40:43;101334.00;;;10.47;100.00
64095;BME280;50353;51.420;5.682;2023-01-04T06:43:09;101336.63;;;10.65;100.00
64095;BME280;50353;51.420;5.682;2023-01-04T06:45:34;101333.84;;;10.51;100.00
64095;BME280;50353;51.420;5.682;2023-01-04T06:47:59;101324.09;;;10.51;100.00
64095;BME280;50353;51.420;5.682;2023-01-04T06:50:24;101328.25;;;10.57;100.00
64095;BME280;50353;51.420;5.682;2023-01-04T06:52:50;101327.28;;;10.58;100.00
64095;BME280;50353;51.420;5.682;2023-01-04T06:55:15;101326.44;;;10.57;100.00
64095;BME280;50353;51.420;5.682;2023-01-04T06:57:40;101321.41;;;10.53;100.00
64095;BME280;50353;51.420;5.682;2023-01-04T07:00:06;101322.00;;;10.58;100.00
64095;BME280;50353;51.420;5.682;2023-01-04T07:02:33;101325.88;;;10.68;100.00
64095;BME280;50353;51.420;5.682;2023-01-04T07:04:58;101318.25;;;10.62;100.00
64095;BME280;50353;51.420;5.682;2023-01-04T07:07:23;101315.03;;;10.57;100.00
64095;BME280;50353;51.420;5.682;2023-01-04T07:09:49;101298.81;;;10.63;100.00
64095;BME280;50353;51.420;5.682;2023-01-04T07:12:14;101309.00;;;10.71;100.00
64095;BME280;50353;51.420;5.682;2023-01-04T07:14:39;101307.97;;;10.73;100.00
64095;BME280;50353;51.420;5.682;2023-01-04T07:17:05;101305.97;;;10.78;100.00
64095;BME280;50353;51.420;5.682;2023-01-04T07:19:30;101301.69;;;10.76;100.00
64095;BME280;50353;51.420;5.682;2023-01-04T07:21:55;101296.66;;;10.87;100.00
64095;BME280;50353;51.420;5.682;2023-01-04T07:24:22;101297.06;;;10.79;100.00
64095;BME280;50353;51.420;5.682;2023-01-04T07:26:48;101298.59;;;10.68;100.00
64095;BME280;50353;51.420;5.682;2023-01-04T07:29:13;101296.13;;;10.80;100.00
64095;BME280;50353;51.420;5.682;2023-01-04T07:31:40;101293.31;;;10.83;100.00
64095;BME280;50353;51.420;5.682;2023-01-04T07:34:05;101281.81;;;10.85;100.00
64095;BME280;50353;51.420;5.682;2023-01-04T07:36:30;101284.19;;;10.73;100.00
64095;BME280;50353;51.420;5.682;2023-01-04T07:38:58;101284.09;;;10.75;100.00
64095;BME280;50353;51.420;5.682;2023-01-04T07:41:23;101277.63;;;10.80;100.00
64095;BME280;50353;51.420;5.682;2023-01-04T07:43:49;101259.81;;;10.84;100.00
64095;BME280;50353;51.420;5.682;2023-01-04T07:46:14;101276.94;;;10.93;100.00
64095;BME280;50353;51.420;5.682;2023-01-04T07:48:39;101264.50;;;10.95;100.00
64095;BME280;50353;51.420;5.682;2023-01-04T07:51:05;101266.72;;;11.03;100.00
64095;BME280;50353;51.420;5.682;2023-01-04T07:53:31;101260.47;;;10.88;100.00
64095;BME280;50353;51.420;5.682;2023-01-04T07:55:57;101261.19;;;11.07;100.00
64095;BME280;50353;51.420;5.682;2023-01-04T07:58:24;101256.56;;;10.95;100.00
64095;BME280;50353;51.420;5.682;2023-01-04T08:00:49;101262.97;;;10.91;100.00
64095;BME280;50353;51.420;5.682;2023-01-04T08:03:15;101260.22;;;11.08;100.00
64095;BME280;50353;51.420;5.682;2023-01-04T08:05:40;101255.22;;;11.20;100.00
64095;BME280;50353;51.420;5.682;2023-01-04T08:08:06;101251.25;;;11.11;100.00
64095;BME280;50353;51.420;5.682;2023-01-04T08:10:32;101258.63;;;11.06;100.00
64095;BME280;50353;51.420;5.682;2023-01-04T08:12:58;101248.09;;;11.20;100.00
64095;BME280;50353;51.420;5.682;2023-01-04T08:15:24;101241.56;;;11.11;100.00
64095;BME280;50353;51.420;5.682;2023-01-04T08:17:50;101234.13;;;11.18;100.00
64095;BME280;50353;51.420;5.682;2023-01-04T08:20:16;101255.34;;;11.16;100.00
64095;BME280;50353;51.420;5.682;2023-01-04T08:22:41;101249.31;;;11.14;100.00
64095;BME280;50353;51.420;5.682;2023-01-04T08:25:07;101263.22;;;11.02;100.00
64095;BME280;50353;51.420;5.682;2023-01-04T08:27:32;101263.66;;;11.10;100.00
64095;BME280;50353;51.420;5.682;2023-01-04T08:29:57;101251.34;;;11.25;100.00
64095;BME280;50353;51.420;5.682;2023-01-04T08:32:23;101262.63;;;11.13;100.00
64095;BME280;50353;51.420;5.682;2023-01-04T08:34:48;101268.34;;;11.21;100.00
64095;BME280;50353;51.420;5.682;2023-01-04T08:37:13;101260.59;;;11.18;100.00
64095;BME280;50353;51.420;5.682;2023-01-04T08:39:38;101261.94;;;11.25;100.00
64095;BME280;50353;51.420;5.682;2023-01-04T08:42:04;101266.31;;;11.26;100.00
64095;BME280;50353;51.420;5.682;2023-01-04T08:44:29;101258.19;;;11.29;100.00
64095;BME280;50353;51.420;5.682;2023-01-04T08:46:55;101268.59;;;11.32;100.00
64095;BME280;50353;51.420;5.682;2023-01-04T08:49:21;101270.03;;;11.38;100.00
64095;BME280;50353;51.420;5.682;2023-01-04T08:51:47;101268.94;;;11.26;100.00
64095;BME280;50353;51.420;5.682;2023-01-04T08:54:13;101274.06;;;11.29;100.00
64095;BME280;50353;51.420;5.682;2023-01-04T08:56:39;101268.50;;;11.34;100.00
64095;BME280;50353;51.420;5.682;2023-01-04T08:59:05;101260.81;;;11.45;100.00
64095;BME280;50353;51.420;5.682;2023-01-04T09:01:32;101267.78;;;11.46;99.87
64095;BME280;50353;51.420;5.682;2023-01-04T09:03:58;101272.75;;;11.37;100.00
64095;BME280;50353;51.420;5.682;2023-01-04T09:06:23;101273.19;;;11.45;99.81
64095;BME280;50353;51.420;5.682;2023-01-04T09:08:48;101270.81;;;11.40;99.55
64095;BME280;50353;51.420;5.682;2023-01-04T09:11:17;101275.16;;;11.41;100.00
64095;BME280;50353;51.420;5.682;2023-01-04T09:13:43;101272.94;;;11.49;99.55
64095;BME280;50353;51.420;5.682;2023-01-04T09:16:18;101258.69;;;11.52;99.83
64095;BME280;50353;51.420;5.682;2023-01-04T09:18:44;101279.22;;;11.63;99.59
64095;BME280;50353;51.420;5.682;2023-01-04T09:21:12;101256.47;;;11.44;98.60
64095;BME280;50353;51.420;5.682;2023-01-04T09:23:38;101284.50;;;11.63;99.19
64095;BME280;50353;51.420;5.682;2023-01-04T09:26:15;101267.47;;;11.53;99.33
64095;BME280;50353;51.420;5.682;2023-01-04T09:28:41;101281.13;;;11.61;98.66
64095;BME280;50353;51.420;5.682;2023-01-04T09:31:13;101279.22;;;11.63;100.00
64095;BME280;50353;51.420;5.682;2023-01-04T09:33:39;101276.31;;;11.67;99.47
64095;BME280;50353;51.420;5.682;2023-01-04T09:36:05;101280.78;;;11.67;99.59
64095;BME280;50353;51.420;5.682;2023-01-04T09:38:32;101269.09;;;11.55;100.00
64095;BME280;50353;51.420;5.682;2023-01-04T09:43:36;101281.94;;;11.61;100.00
64095;BME280;50353;51.420;5.682;2023-01-04T09:46:07;101282.56;;;11.50;100.00
64095;BME280;50353;51.420;5.682;2023-01-04T09:48:36;101292.63;;;11.76;100.00
64095;BME280;50353;51.420;5.682;2023-01-04T09:51:11;101278.38;;;11.62;100.00
64095;BME280;50353;51.420;5.682;2023-01-04T09:53:45;101284.97;;;11.86;100.00
64095;BME280;50353;51.420;5.682;2023-01-04T09:56:27;101296.28;;;11.73;100.00
64095;BME280;50353;51.420;5.682;2023-01-04T09:58:54;101283.16;;;11.56;100.00
64095;BME280;50353;51.420;5.682;2023-01-04T10:01:26;101276.75;;;11.60;100.00
64095;BME280;50353;51.420;5.682;2023-01-04T10:04:01;101278.78;;;11.71;100.00
64095;BME280;50353;51.420;5.682;2023-01-04T10:06:31;101272.31;;;11.60;100.00
64095;BME280;50353;51.420;5.682;2023-01-04T10:08:57;101274.28;;;11.57;100.00
64095;BME280;50353;51.420;5.682;2023-01-04T10:11:57;101275.72;;;11.62;100.00
64095;BME280;50353;51.420;5.682;2023-01-04T10:25:27;101248.50;;;11.60;100.00
64095;BME280;50353;51.420;5.682;2023-01-04T10:30:59;101234.53;;;11.73;100.00
64095;BME280;50353;51.420;5.682;2023-01-04T10:33:48;101235.75;;;11.67;100.00
64095;BME280;50353;51.420;5.682;2023-01-04T10:36:21;101246.78;;;11.59;100.00
64095;BME280;50353;51.420;5.682;2023-01-04T10:38:56;101244.22;;;11.88;100.00
64095;BME280;50353;51.420;5.682;2023-01-04T10:41:23;101246.91;;;11.72;100.00
64095;BME280;50353;51.420;5.682;2023-01-04T10:44:12;101258.28;;;11.74;100.00
64095;BME280;50353;51.420;5.682;2023-01-04T10:46:56;101235.38;;;11.73;100.00
64095;BME280;50353;51.420;5.682;2023-01-04T10:49:46;101233.66;;;11.72;100.00
64095;BME280;50353;51.420;5.682;2023-01-04T10:52:17;101229.53;;;11.82;100.00
64095;BME280;50353;51.420;5.682;2023-01-04T10:54:54;101232.53;;;11.76;100.00
64095;BME280;50353;51.420;5.682;2023-01-04T10:57:33;101231.97;;;11.71;100.00
64095;BME280;50353;51.420;5.682;2023-01-04T11:02:35;101222.34;;;11.84;100.00
64095;BME280;50353;51.420;5.682;2023-01-04T11:07:51;101219.78;;;11.83;100.00
64095;BME280;50353;51.420;5.682;2023-01-04T11:10:24;101219.78;;;11.83;100.00
64095;BME280;50353;51.420;5.682;2023-01-04T11:12:51;101211.00;;;11.82;100.00
64095;BME280;50353;51.420;5.682;2023-01-04T11:15:16;101209.69;;;11.90;100.00
64095;BME280;50353;51.420;5.682;2023-01-04T11:17:42;101202.97;;;11.84;100.00
64095;BME280;50353;51.420;5.682;2023-01-04T11:20:08;101210.81;;;11.86;100.00
64095;BME280;50353;51.420;5.682;2023-01-04T11:22:41;101223.09;;;12.03;100.00
64095;BME280;50353;51.420;5.682;2023-01-04T11:25:14;101218.16;;;11.80;100.00
64095;BME280;50353;51.420;5.682;2023-01-04T11:27:50;101212.72;;;11.83;100.00
64095;BME280;50353;51.420;5.682;2023-01-04T11:30:22;101211.19;;;11.94;100.00
64095;BME280;50353;51.420;5.682;2023-01-04T11:33:01;101217.44;;;11.93;100.00
64095;BME280;50353;51.420;5.682;2023-01-04T11:35:45;101207.56;;;11.80;100.00
64095;BME280;50353;51.420;5.682;2023-01-04T11:38:17;101218.00;;;11.83;100.00
64095;BME280;50353;51.420;5.682;2023-01-04T11:41:04;101222.19;;;11.88;100.00
64095;BME280;50353;51.420;5.682;2023-01-04T11:43:31;101207.22;;;11.87;100.00
64095;BME280;50353;51.420;5.682;2023-01-04T11:45:58;101210.81;;;11.86;100.00
64095;BME280;50353;51.420;5.682;2023-01-04T11:48:50;101196.44;;;11.90;100.00
64095;BME280;50353;51.420;5.682;2023-01-04T11:54:01;101214.31;;;11.86;100.00
64095;BME280;50353;51.420;5.682;2023-01-04T11:56:29;101213.00;;;11.93;100.00
64095;BME280;50353;51.420;5.682;2023-01-04T12:01:30;101196.44;;;11.90;100.00
64095;BME280;50353;51.420;5.682;2023-01-04T12:03:56;101218.25;;;11.95;100.00
64095;BME280;50353;51.420;5.682;2023-01-04T12:06:36;101213.28;;;11.89;100.00
64095;BME280;50353;51.420;5.682;2023-01-04T12:09:02;101213.19;;;11.90;100.00
64095;BME280;50353;51.420;5.682;2023-01-04T12:11:30;101196.84;;;11.98;100.00
64095;BME280;50353;51.420;5.682;2023-01-04T12:13:58;101208.13;;;12.02;100.00
64095;BME280;50353;51.420;5.682;2023-01-04T12:16:44;101199.84;;;11.92;100.00
64095;BME280;50353;51.420;5.682;2023-01-04T12:19:15;101205.25;;;11.90;100.00
64095;BME280;50353;51.420;5.682;2023-01-04T12:21:44;101187.91;;;11.84;100.00
64095;BME280;50353;51.420;5.682;2023-01-04T12:24:16;101196.03;;;11.97;100.00
64095;BME280;50353;51.420;5.682;2023-01-04T12:26:43;101190.19;;;11.91;100.00
64095;BME280;50353;51.420;5.682;2023-01-04T12:31:47;101205.38;;;12.03;100.00
64095;BME280;50353;51.420;5.682;2023-01-04T12:54:57;101196.84;;;11.98;100.00
64095;BME280;50353;51.420;5.682;2023-01-04T12:57:33;101189.38;;;12.05;100.00
64095;BME280;50353;51.420;5.682;2023-01-04T13:00:13;101190.34;;;12.18;100.00
64095;BME280;50353;51.420;5.682;2023-01-04T13:02:43;101196.88;;;12.27;100.00
64095;BME280;50353;51.420;5.682;2023-01-04T13:07:57;101188.84;;;12.14;100.00
64095;BME280;50353;51.420;5.682;2023-01-04T13:10:39;101192.72;;;12.23;100.00
64095;BME280;50353;51.420;5.682;2023-01-04T13:15:59;101185.72;;;12.22;100.00
64095;BME280;50353;51.420;5.682;2023-01-04T13:21:50;101172.91;;;12.28;100.00
64095;BME280;50353;51.420;5.682;2023-01-04T13:24:02;101180.22;;;12.25;100.00
64095;BME280;50353;51.420;5.682;2023-01-04T13:26:39;101183.25;;;12.33;100.00
64095;BME280;50353;51.420;5.682;2023-01-04T13:29:18;101185.25;;;12.15;100.00
64095;BME280;50353;51.420;5.682;2023-01-04T13:31:50;101190.44;;;12.31;100.00
64095;BME280;50353;51.420;5.682;2023-01-04T13:34:37;101197.44;;;12.32;100.00
64095;BME280;50353;51.420;5.682;2023-01-04T13:39:35;101182.75;;;12.12;100.00
64095;BME280;50353;51.420;5.682;2023-01-04T13:42:01;101194.22;;;12.27;100.00
64095;BME280;50353;51.420;5.682;2023-01-04T13:47:02;101200.94;;;12.04;100.00
64095;BME280;50353;51.420;5.682;2023-01-04T13:49:27;101204.28;;;12.22;100.00
64095;BME280;50353;51.420;5.682;2023-01-04T13:51:53;101203.44;;;12.36;100.00
64095;BME280;50353;51.420;5.682;2023-01-04T13:54:21;101179.84;;;12.31;100.00
64095;BME280;50353;51.420;5.682;2023-01-04T13:56:47;101170.56;;;12.38;100.00
64095;BME280;50353;51.420;5.682;2023-01-04T13:59:15;101186.09;;;12.30;100.00
64095;BME280;50353;51.420;5.682;2023-01-04T14:01:43;101183.25;;;12.18;100.00
64095;BME280;50353;51.420;5.682;2023-01-04T14:04:29;101179.28;;;12.26;100.00
64095;BME280;50353;51.420;5.682;2023-01-04T14:06:58;101197.44;;;12.32;100.00
64095;BME280;50353;51.420;5.682;2023-01-04T14:09:30;101192.59;;;12.24;100.00
64095;BME280;50353;51.420;5.682;2023-01-04T14:12:07;101176.91;;;12.21;100.00
64095;BME280;50353;51.420;5.682;2023-01-04T14:17:46;101157.00;;;12.43;100.00
64095;BME280;50353;51.420;5.682;2023-01-04T14:36:27;101166.94;;;12.39;100.00
64095;BME280;50353;51.420;5.682;2023-01-04T14:41:36;101144.78;;;12.40;100.00
64095;BME280;50353;51.420;5.682;2023-01-04T14:44:08;101155.66;;;12.50;100.00
64095;BME280;50353;51.420;5.682;2023-01-04T14:46:34;101163.25;;;12.56;100.00